INDIA METEOROLOGICAL DEPARTMENT, R.M.C. NEW DELHI
Dated:26 - 4 - 2019
METARS OF ALTERNATE AIRPORTS
Delhi      
VIDP 260330Z 33004KT 1500 R28/P2000 R29/P2000 HZ NSC 32/14 Q1010 NOSIG=
Lucknow    
VILK 260330Z 00000KT 3000 HZ NSC 35/23 Q1006 NOSIG=
Jaipur     
VIJP 260330Z 29003KT 2000 HZ NSC 34/12 Q1010 NOSIG=
Ahmedabad  
VAAH 260330Z 34005KT 3000 FU NSC 33/20 Q1009 BECMG 4000=
Udaipur    
VAUD 260330Z 33005KT 6000 NSC 33/13 Q1012 NOSIG=
Mumbai     
VABB 260330Z 12005KT 3000 FU NSC 32/23 Q1010 NOSIG=